WMT7847 EPWA-LIRN
Flight info
| Callsign | WMT7847 |
|---|---|
| Flight time | 2h 2m |
| Altitude | 36000 |
| Route | EVINA DCT KUKAM DCT BABKO DCT KOPRY DCT ZDA DCT ELGUS DCT SUXUB DCT ERIKA |
| Aircraft | A21N/M-SDE2E3FGHIRWXY/LB1 |
Departure
| Time | 2026-05-05 18:55 |
|---|---|
| Airport | Warsaw Chopin Airport (EPWA) |
Arrival
| Time | 2026-05-05 20:58 |
|---|---|
| Airport | Naples International Airport (LIRN) |
| Time | Latitude | Longitude | Altitude | Speed | Heading |
|---|---|---|---|---|---|
| 2026-05-05 18:07 | 52.17339 | 20.96557 | 361 ft | 0 kts | 201° |
| 2026-05-05 18:41 | 52.17319 | 20.96543 | 361 ft | 15 kts | 213° |
| 2026-05-05 18:42 | 52.17236 | 20.96531 | 359 ft | 14 kts | 157° |
| 2026-05-05 18:42 | 52.17148 | 20.96604 | 361 ft | 15 kts | 152° |
| 2026-05-05 18:42 | 52.17054 | 20.96688 | 359 ft | 16 kts | 150° |
| 2026-05-05 18:42 | 52.16954 | 20.96779 | 358 ft | 17 kts | 152° |
| 2026-05-05 18:43 | 52.16846 | 20.96869 | 359 ft | 18 kts | 153° |
| 2026-05-05 18:43 | 52.16733 | 20.96968 | 354 ft | 19 kts | 151° |
| 2026-05-05 18:43 | 52.16642 | 20.97118 | 358 ft | 20 kts | 112° |
| 2026-05-05 18:43 | 52.16584 | 20.97325 | 361 ft | 21 kts | 115° |
| 2026-05-05 18:44 | 52.16522 | 20.97541 | 357 ft | 21 kts | 112° |
| 2026-05-05 18:44 | 52.16476 | 20.97722 | 355 ft | 18 kts | 112° |
| 2026-05-05 18:44 | 52.16415 | 20.97804 | 357 ft | 11 kts | 193° |
| 2026-05-05 18:44 | 52.16411 | 20.97802 | 358 ft | 0 kts | 194° |
| 2026-05-05 18:45 | 52.16364 | 20.97777 | 358 ft | 11 kts | 202° |
| 2026-05-05 18:46 | 52.16309 | 20.97690 | 360 ft | 12 kts | 266° |
| 2026-05-05 18:46 | 52.16315 | 20.97643 | 354 ft | 0 kts | 291° |
| 2026-05-05 18:46 | 52.16316 | 20.97636 | 359 ft | 6 kts | 290° |
| 2026-05-05 18:47 | 52.17339 | 20.96557 | 355 ft | 0 kts | 201° |
| 2026-05-05 18:47 | 52.17317 | 20.96543 | 363 ft | 3 kts | 201° |
| 2026-05-05 18:48 | 52.17298 | 20.96531 | 357 ft | 0 kts | 201° |
| 2026-05-05 18:49 | 52.17280 | 20.96521 | 356 ft | 7 kts | 199° |
| 2026-05-05 18:49 | 52.17229 | 20.96543 | 359 ft | 9 kts | 152° |
| 2026-05-05 18:49 | 52.17169 | 20.96593 | 360 ft | 11 kts | 154° |
| 2026-05-05 18:50 | 52.17122 | 20.96629 | 358 ft | 12 kts | 154° |
| 2026-05-05 18:50 | 52.17046 | 20.96694 | 358 ft | 13 kts | 151° |
| 2026-05-05 18:50 | 52.16963 | 20.96769 | 360 ft | 14 kts | 151° |
| 2026-05-05 18:50 | 52.16871 | 20.96843 | 360 ft | 15 kts | 151° |
| 2026-05-05 18:51 | 52.16774 | 20.96930 | 357 ft | 16 kts | 151° |
| 2026-05-05 18:51 | 52.16672 | 20.97028 | 357 ft | 18 kts | 131° |
| 2026-05-05 18:51 | 52.16617 | 20.97209 | 361 ft | 18 kts | 114° |
| 2026-05-05 18:51 | 52.16570 | 20.97376 | 357 ft | 15 kts | 114° |
| 2026-05-05 18:52 | 52.16525 | 20.97539 | 360 ft | 17 kts | 114° |
| 2026-05-05 18:52 | 52.16478 | 20.97714 | 360 ft | 17 kts | 114° |
| 2026-05-05 18:52 | 52.16394 | 20.97790 | 355 ft | 16 kts | 198° |
| 2026-05-05 18:52 | 52.16309 | 20.97685 | 357 ft | 17 kts | 280° |
| 2026-05-05 18:53 | 52.16321 | 20.97618 | 361 ft | 0 kts | 293° |
| 2026-05-05 18:54 | 52.16358 | 20.97484 | 357 ft | 42 kts | 294° |
| 2026-05-05 18:54 | 52.16583 | 20.96678 | 355 ft | 112 kts | 294° |
| 2026-05-05 18:54 | 52.16986 | 20.95232 | 364 ft | 164 kts | 294° |
| 2026-05-05 18:55 | 52.17501 | 20.93519 | 767 ft | 166 kts | 296° |
| 2026-05-05 18:55 | 52.17956 | 20.91799 | 1298 ft | 164 kts | 289° |
| 2026-05-05 18:55 | 52.18354 | 20.89978 | 1692 ft | 174 kts | 275° |
| 2026-05-05 18:55 | 52.18233 | 20.87942 | 2039 ft | 183 kts | 252° |
| 2026-05-05 18:56 | 52.17891 | 20.85864 | 2407 ft | 196 kts | 253° |
| 2026-05-05 18:56 | 52.17537 | 20.83549 | 2781 ft | 209 kts | 254° |
| 2026-05-05 18:56 | 52.17195 | 20.81271 | 3120 ft | 222 kts | 254° |
| 2026-05-05 18:56 | 52.16678 | 20.78831 | 3469 ft | 235 kts | 238° |
| 2026-05-05 18:57 | 52.15509 | 20.76907 | 3831 ft | 248 kts | 211° |
| 2026-05-05 18:57 | 52.13880 | 20.75843 | 4362 ft | 256 kts | 199° |
| 2026-05-05 18:57 | 52.12162 | 20.74993 | 4988 ft | 259 kts | 199° |
| 2026-05-05 18:57 | 52.10416 | 20.74116 | 5665 ft | 260 kts | 199° |
| 2026-05-05 18:58 | 52.08683 | 20.73221 | 6325 ft | 260 kts | 199° |
| 2026-05-05 18:58 | 52.06965 | 20.72316 | 6931 ft | 261 kts | 200° |
| 2026-05-05 18:58 | 52.05236 | 20.71395 | 7533 ft | 262 kts | 200° |
| 2026-05-05 18:58 | 52.03501 | 20.70465 | 8124 ft | 263 kts | 200° |
| 2026-05-05 18:59 | 52.01757 | 20.69527 | 8716 ft | 265 kts | 200° |
| 2026-05-05 18:59 | 52.00002 | 20.68584 | 9298 ft | 266 kts | 200° |
| 2026-05-05 18:59 | 51.98240 | 20.67635 | 9830 ft | 269 kts | 200° |
| 2026-05-05 18:59 | 51.96434 | 20.66661 | 10131 ft | 279 kts | 200° |
| 2026-05-05 19:00 | 51.94550 | 20.65645 | 10362 ft | 292 kts | 200° |
| 2026-05-05 19:00 | 51.92578 | 20.64584 | 10605 ft | 304 kts | 200° |
| 2026-05-05 19:00 | 51.90550 | 20.63495 | 10993 ft | 311 kts | 200° |
| 2026-05-05 19:00 | 51.88483 | 20.62384 | 11424 ft | 315 kts | 200° |
| 2026-05-05 19:01 | 51.86396 | 20.61264 | 11923 ft | 317 kts | 200° |
| 2026-05-05 19:01 | 51.84289 | 20.60138 | 12429 ft | 319 kts | 200° |
| 2026-05-05 19:01 | 51.82177 | 20.59006 | 12922 ft | 321 kts | 200° |
| 2026-05-05 19:01 | 51.80044 | 20.57864 | 13420 ft | 323 kts | 200° |
| 2026-05-05 19:02 | 51.77905 | 20.56720 | 13866 ft | 325 kts | 200° |
| 2026-05-05 19:02 | 51.75749 | 20.55569 | 14263 ft | 328 kts | 200° |
| 2026-05-05 19:02 | 51.73576 | 20.54408 | 14651 ft | 331 kts | 200° |
| 2026-05-05 19:02 | 51.71383 | 20.53241 | 15035 ft | 333 kts | 200° |
| 2026-05-05 19:03 | 51.69171 | 20.52065 | 15408 ft | 336 kts | 200° |
| 2026-05-05 19:03 | 51.66946 | 20.50883 | 15770 ft | 338 kts | 200° |
| 2026-05-05 19:03 | 51.64698 | 20.49689 | 16123 ft | 341 kts | 200° |
| 2026-05-05 19:03 | 51.62436 | 20.48488 | 16471 ft | 343 kts | 200° |
| 2026-05-05 19:04 | 51.60161 | 20.47281 | 16805 ft | 346 kts | 200° |
| 2026-05-05 19:04 | 51.57873 | 20.46070 | 17129 ft | 348 kts | 200° |
| 2026-05-05 19:04 | 51.55565 | 20.44849 | 17447 ft | 350 kts | 200° |
| 2026-05-05 19:04 | 51.53246 | 20.43624 | 17759 ft | 352 kts | 200° |
| 2026-05-05 19:05 | 51.50910 | 20.42390 | 18052 ft | 354 kts | 200° |
| 2026-05-05 19:05 | 51.48562 | 20.41152 | 18287 ft | 356 kts | 200° |
| 2026-05-05 19:05 | 51.46201 | 20.39908 | 18517 ft | 358 kts | 200° |
| 2026-05-05 19:05 | 51.43830 | 20.38661 | 18711 ft | 360 kts | 199° |
| 2026-05-05 19:06 | 51.41446 | 20.37411 | 18891 ft | 361 kts | 199° |
| 2026-05-05 19:06 | 51.39054 | 20.36156 | 19048 ft | 363 kts | 199° |
| 2026-05-05 19:06 | 51.36654 | 20.34900 | 19210 ft | 363 kts | 199° |
| 2026-05-05 19:06 | 51.34247 | 20.33646 | 19354 ft | 364 kts | 199° |
| 2026-05-05 19:07 | 51.31833 | 20.32392 | 19478 ft | 365 kts | 199° |
| 2026-05-05 19:07 | 51.29419 | 20.31136 | 19580 ft | 365 kts | 199° |
| 2026-05-05 19:07 | 51.27000 | 20.29880 | 19680 ft | 366 kts | 199° |
| 2026-05-05 19:07 | 51.24577 | 20.28624 | 19758 ft | 367 kts | 199° |
| 2026-05-05 19:08 | 51.22150 | 20.27366 | 19831 ft | 367 kts | 199° |
| 2026-05-05 19:08 | 51.19722 | 20.26109 | 19896 ft | 367 kts | 199° |
| 2026-05-05 19:08 | 51.17287 | 20.24851 | 19962 ft | 368 kts | 199° |
| 2026-05-05 19:08 | 51.14854 | 20.23594 | 20031 ft | 368 kts | 199° |
| 2026-05-05 19:09 | 51.12417 | 20.22340 | 20102 ft | 369 kts | 199° |
| 2026-05-05 19:09 | 51.09969 | 20.21079 | 20381 ft | 371 kts | 199° |
| 2026-05-05 19:09 | 51.07497 | 20.19807 | 20883 ft | 374 kts | 199° |
| 2026-05-05 19:09 | 51.05014 | 20.18532 | 21377 ft | 377 kts | 199° |
| 2026-05-05 19:10 | 51.02508 | 20.17249 | 21854 ft | 380 kts | 199° |
| 2026-05-05 19:10 | 50.99983 | 20.15957 | 22316 ft | 383 kts | 199° |
| 2026-05-05 19:10 | 50.97434 | 20.14648 | 22773 ft | 386 kts | 199° |
| 2026-05-05 19:10 | 50.94858 | 20.13327 | 23229 ft | 389 kts | 199° |
| 2026-05-05 19:11 | 50.92287 | 20.12011 | 23631 ft | 392 kts | 199° |
| 2026-05-05 19:11 | 50.89680 | 20.10679 | 24029 ft | 394 kts | 199° |
| 2026-05-05 19:11 | 50.87063 | 20.09344 | 24421 ft | 396 kts | 199° |
| 2026-05-05 19:11 | 50.84430 | 20.08005 | 24807 ft | 399 kts | 199° |
| 2026-05-05 19:12 | 50.81784 | 20.06660 | 25182 ft | 401 kts | 199° |
| 2026-05-05 19:12 | 50.79117 | 20.05305 | 25548 ft | 403 kts | 199° |
| 2026-05-05 19:12 | 50.76441 | 20.03945 | 25916 ft | 405 kts | 199° |
| 2026-05-05 19:12 | 50.73751 | 20.02581 | 26276 ft | 407 kts | 199° |
| 2026-05-05 19:13 | 50.71041 | 20.01209 | 26633 ft | 409 kts | 199° |
| 2026-05-05 19:13 | 50.68330 | 19.99837 | 27002 ft | 410 kts | 199° |
| 2026-05-05 19:13 | 50.65615 | 19.98468 | 27365 ft | 412 kts | 199° |
| 2026-05-05 19:13 | 50.62876 | 19.97089 | 27708 ft | 414 kts | 199° |
| 2026-05-05 19:14 | 50.60125 | 19.95704 | 28037 ft | 416 kts | 199° |
| 2026-05-05 19:14 | 50.57360 | 19.94312 | 28368 ft | 418 kts | 199° |
| 2026-05-05 19:14 | 50.54585 | 19.92918 | 28684 ft | 420 kts | 199° |
| 2026-05-05 19:14 | 50.51796 | 19.91519 | 28994 ft | 422 kts | 199° |
| 2026-05-05 19:15 | 50.48995 | 19.90112 | 29299 ft | 424 kts | 199° |
| 2026-05-05 19:15 | 50.46182 | 19.88703 | 29607 ft | 426 kts | 199° |
| 2026-05-05 19:15 | 50.43357 | 19.87290 | 29883 ft | 427 kts | 199° |
| 2026-05-05 19:15 | 50.40514 | 19.85869 | 30128 ft | 429 kts | 199° |
| 2026-05-05 19:16 | 50.37666 | 19.84448 | 30373 ft | 431 kts | 199° |
| 2026-05-05 19:16 | 50.34800 | 19.83021 | 30613 ft | 432 kts | 199° |
| 2026-05-05 19:16 | 50.31933 | 19.81595 | 30836 ft | 434 kts | 199° |
| 2026-05-05 19:16 | 50.29046 | 19.80161 | 31063 ft | 436 kts | 199° |
| 2026-05-05 19:17 | 50.26157 | 19.78733 | 31334 ft | 436 kts | 199° |
| 2026-05-05 19:17 | 50.23263 | 19.77305 | 31636 ft | 435 kts | 199° |
| 2026-05-05 19:17 | 50.20381 | 19.75875 | 31928 ft | 434 kts | 199° |
| 2026-05-05 19:17 | 50.17503 | 19.74447 | 32212 ft | 434 kts | 199° |
| 2026-05-05 19:18 | 50.14625 | 19.73025 | 32484 ft | 433 kts | 199° |
| 2026-05-05 19:18 | 50.11753 | 19.71610 | 32759 ft | 433 kts | 199° |
| 2026-05-05 19:18 | 50.08886 | 19.70201 | 33005 ft | 432 kts | 199° |
| 2026-05-05 19:18 | 50.06023 | 19.68792 | 33257 ft | 432 kts | 199° |
| 2026-05-05 19:19 | 50.03162 | 19.67385 | 33521 ft | 431 kts | 199° |
| 2026-05-05 19:19 | 50.00303 | 19.65981 | 33765 ft | 430 kts | 199° |
| 2026-05-05 19:19 | 49.94585 | 19.63180 | 33860 ft | 430 kts | 199° |
| 2026-05-05 19:20 | 49.88875 | 19.60390 | 33828 ft | 430 kts | 199° |
| 2026-05-05 19:20 | 49.83187 | 19.57620 | 33829 ft | 427 kts | 200° |
| 2026-05-05 19:21 | 49.77532 | 19.54870 | 33821 ft | 427 kts | 199° |
| 2026-05-05 19:21 | 49.71853 | 19.52118 | 33845 ft | 428 kts | 200° |
| 2026-05-05 19:22 | 49.67150 | 19.49841 | 33842 ft | 427 kts | 199° |
| 2026-05-05 19:22 | 49.61481 | 19.47031 | 33836 ft | 427 kts | 204° |
| 2026-05-05 19:23 | 49.56202 | 19.43049 | 33845 ft | 421 kts | 210° |
| 2026-05-05 19:23 | 49.50990 | 19.38840 | 33846 ft | 425 kts | 210° |
| 2026-05-05 19:24 | 49.45763 | 19.34669 | 33839 ft | 421 kts | 210° |
| 2026-05-05 19:24 | 49.40543 | 19.30522 | 33857 ft | 425 kts | 210° |
| 2026-05-05 19:25 | 49.35308 | 19.26373 | 33852 ft | 421 kts | 209° |
| 2026-05-05 19:25 | 49.30075 | 19.22236 | 33866 ft | 425 kts | 209° |
| 2026-05-05 19:26 | 49.24839 | 19.18114 | 33867 ft | 423 kts | 209° |
| 2026-05-05 19:26 | 49.19589 | 19.13982 | 33868 ft | 426 kts | 209° |
| 2026-05-05 19:27 | 49.14328 | 19.09856 | 33866 ft | 424 kts | 209° |
| 2026-05-05 19:27 | 49.09064 | 19.05736 | 33873 ft | 426 kts | 209° |
| 2026-05-05 19:28 | 49.03799 | 19.01625 | 33869 ft | 425 kts | 209° |
| 2026-05-05 19:28 | 48.98532 | 18.97521 | 33875 ft | 426 kts | 209° |
| 2026-05-05 19:29 | 48.93259 | 18.93424 | 33879 ft | 425 kts | 209° |
| 2026-05-05 19:29 | 48.87984 | 18.89337 | 33877 ft | 426 kts | 209° |
| 2026-05-05 19:30 | 48.82710 | 18.85268 | 33870 ft | 425 kts | 209° |
| 2026-05-05 19:30 | 48.77432 | 18.81197 | 33873 ft | 425 kts | 209° |
| 2026-05-05 19:31 | 48.72155 | 18.77134 | 33875 ft | 426 kts | 209° |
| 2026-05-05 19:31 | 48.66879 | 18.73074 | 33876 ft | 426 kts | 209° |
| 2026-05-05 19:32 | 48.61603 | 18.69030 | 33866 ft | 425 kts | 209° |
| 2026-05-05 19:32 | 48.56322 | 18.64993 | 33871 ft | 425 kts | 209° |
| 2026-05-05 19:33 | 48.51048 | 18.60972 | 33871 ft | 425 kts | 209° |
| 2026-05-05 19:33 | 48.45768 | 18.56958 | 33869 ft | 425 kts | 209° |
| 2026-05-05 19:34 | 48.40477 | 18.52942 | 33861 ft | 427 kts | 209° |
| 2026-05-05 19:35 | 48.32523 | 18.46924 | 33857 ft | 427 kts | 209° |
| 2026-05-05 19:35 | 48.27216 | 18.42924 | 33859 ft | 427 kts | 209° |
| 2026-05-05 19:36 | 48.21907 | 18.38931 | 33854 ft | 427 kts | 208° |
| 2026-05-05 19:36 | 48.16591 | 18.34936 | 33852 ft | 427 kts | 208° |
| 2026-05-05 19:37 | 48.11272 | 18.30953 | 33852 ft | 428 kts | 208° |
| 2026-05-05 19:37 | 48.05943 | 18.26973 | 33852 ft | 428 kts | 208° |
| 2026-05-05 19:38 | 48.00637 | 18.23009 | 33846 ft | 426 kts | 208° |
| 2026-05-05 19:38 | 47.95333 | 18.19061 | 33847 ft | 426 kts | 208° |
| 2026-05-05 19:39 | 47.90026 | 18.15122 | 33847 ft | 426 kts | 208° |
| 2026-05-05 19:39 | 47.84717 | 18.11192 | 33842 ft | 426 kts | 208° |
| 2026-05-05 19:40 | 47.79422 | 18.07279 | 33851 ft | 425 kts | 208° |
| 2026-05-05 19:40 | 47.74124 | 18.03373 | 33850 ft | 425 kts | 207° |
| 2026-05-05 19:41 | 47.68835 | 17.99485 | 33852 ft | 424 kts | 207° |
| 2026-05-05 19:41 | 47.63543 | 17.95598 | 33857 ft | 425 kts | 208° |
| 2026-05-05 19:42 | 47.58242 | 17.91718 | 33859 ft | 424 kts | 208° |
| 2026-05-05 19:42 | 47.52939 | 17.87843 | 33865 ft | 425 kts | 208° |
| 2026-05-05 19:43 | 47.47638 | 17.83980 | 33864 ft | 425 kts | 208° |
| 2026-05-05 19:43 | 47.42325 | 17.80118 | 33877 ft | 425 kts | 208° |
| 2026-05-05 19:44 | 47.37022 | 17.76272 | 33876 ft | 425 kts | 208° |
| 2026-05-05 19:44 | 47.31705 | 17.72421 | 33876 ft | 425 kts | 208° |
| 2026-05-05 19:45 | 47.26400 | 17.68590 | 33870 ft | 426 kts | 208° |
| 2026-05-05 19:45 | 47.21059 | 17.64739 | 33881 ft | 428 kts | 208° |
| 2026-05-05 19:46 | 47.15755 | 17.60926 | 33883 ft | 428 kts | 208° |
| 2026-05-05 19:46 | 47.10397 | 17.57085 | 33887 ft | 428 kts | 208° |
| 2026-05-05 19:47 | 47.05053 | 17.53259 | 33886 ft | 427 kts | 208° |
| 2026-05-05 19:47 | 46.99709 | 17.49442 | 33890 ft | 427 kts | 208° |
| 2026-05-05 19:48 | 46.94364 | 17.45630 | 33898 ft | 427 kts | 208° |
| 2026-05-05 19:48 | 46.89013 | 17.41825 | 33906 ft | 427 kts | 208° |
| 2026-05-05 19:49 | 46.83673 | 17.38040 | 33916 ft | 426 kts | 208° |
| 2026-05-05 19:49 | 46.78336 | 17.34260 | 33928 ft | 426 kts | 208° |
| 2026-05-05 19:50 | 46.72999 | 17.30491 | 33933 ft | 426 kts | 208° |
| 2026-05-05 19:50 | 46.67668 | 17.26734 | 33934 ft | 425 kts | 208° |
| 2026-05-05 19:51 | 46.62335 | 17.22984 | 33934 ft | 426 kts | 208° |
| 2026-05-05 19:51 | 46.56993 | 17.19238 | 33934 ft | 426 kts | 208° |
| 2026-05-05 19:52 | 46.51644 | 17.15491 | 33931 ft | 426 kts | 208° |
| 2026-05-05 19:52 | 46.46317 | 17.11772 | 33919 ft | 424 kts | 208° |
| 2026-05-05 19:53 | 46.40993 | 17.08059 | 33926 ft | 424 kts | 208° |
| 2026-05-05 19:53 | 46.35677 | 17.04362 | 33919 ft | 424 kts | 208° |
| 2026-05-05 19:54 | 46.30358 | 17.00672 | 33916 ft | 423 kts | 208° |
| 2026-05-05 19:54 | 46.25045 | 16.96993 | 33928 ft | 423 kts | 208° |
| 2026-05-05 19:55 | 46.19839 | 16.93047 | 33931 ft | 422 kts | 211° |
| 2026-05-05 19:55 | 46.14628 | 16.88993 | 33933 ft | 422 kts | 211° |
| 2026-05-05 19:56 | 46.09449 | 16.84977 | 33927 ft | 423 kts | 211° |
| 2026-05-05 19:56 | 46.04258 | 16.80967 | 33941 ft | 423 kts | 211° |
| 2026-05-05 19:57 | 45.99065 | 16.76963 | 33936 ft | 424 kts | 211° |
| 2026-05-05 19:57 | 45.93867 | 16.72964 | 33939 ft | 423 kts | 211° |
| 2026-05-05 19:58 | 45.88681 | 16.68986 | 33948 ft | 422 kts | 211° |
| 2026-05-05 19:58 | 45.83498 | 16.65013 | 33949 ft | 422 kts | 211° |
| 2026-05-05 19:59 | 45.78311 | 16.61047 | 33948 ft | 422 kts | 211° |
| 2026-05-05 19:59 | 45.73124 | 16.57094 | 33955 ft | 421 kts | 211° |
| 2026-05-05 20:00 | 45.67965 | 16.53165 | 33960 ft | 420 kts | 211° |
| 2026-05-05 20:00 | 45.62804 | 16.49246 | 33965 ft | 420 kts | 211° |
| 2026-05-05 20:01 | 45.57637 | 16.45335 | 33961 ft | 420 kts | 211° |
| 2026-05-05 20:01 | 45.52466 | 16.41423 | 33966 ft | 420 kts | 211° |
| 2026-05-05 20:02 | 45.47300 | 16.37529 | 33970 ft | 420 kts | 211° |
| 2026-05-05 20:02 | 45.42128 | 16.33638 | 33966 ft | 420 kts | 211° |
| 2026-05-05 20:03 | 45.36960 | 16.29752 | 33968 ft | 419 kts | 211° |
| 2026-05-05 20:03 | 45.32641 | 16.26501 | 33968 ft | 419 kts | 211° |
| 2026-05-05 20:04 | 45.27475 | 16.22647 | 33977 ft | 420 kts | 211° |
| 2026-05-05 20:04 | 45.22304 | 16.18790 | 33979 ft | 420 kts | 211° |
| 2026-05-05 20:05 | 45.17143 | 16.14926 | 33980 ft | 419 kts | 212° |
| 2026-05-05 20:05 | 45.11974 | 16.11088 | 33988 ft | 419 kts | 212° |
| 2026-05-05 20:06 | 45.06807 | 16.07251 | 33992 ft | 419 kts | 212° |
| 2026-05-05 20:06 | 45.01636 | 16.03416 | 33988 ft | 420 kts | 213° |
| 2026-05-05 20:07 | 44.96450 | 15.99574 | 33995 ft | 421 kts | 213° |
| 2026-05-05 20:07 | 44.91263 | 15.95746 | 34004 ft | 421 kts | 213° |
| 2026-05-05 20:08 | 44.86069 | 15.91921 | 34015 ft | 421 kts | 213° |
| 2026-05-05 20:08 | 44.80878 | 15.88102 | 34021 ft | 421 kts | 214° |
| 2026-05-05 20:09 | 44.75680 | 15.84285 | 34025 ft | 422 kts | 214° |
| 2026-05-05 20:09 | 44.70471 | 15.80477 | 34039 ft | 422 kts | 214° |
| 2026-05-05 20:10 | 44.65270 | 15.76686 | 34047 ft | 419 kts | 214° |
| 2026-05-05 20:10 | 44.60101 | 15.72925 | 34058 ft | 418 kts | 215° |
| 2026-05-05 20:11 | 44.54944 | 15.69159 | 34053 ft | 418 kts | 215° |
| 2026-05-05 20:11 | 44.49779 | 15.65399 | 34061 ft | 418 kts | 215° |
| 2026-05-05 20:12 | 44.44615 | 15.61658 | 34048 ft | 418 kts | 214° |
| 2026-05-05 20:12 | 44.39459 | 15.57925 | 34058 ft | 418 kts | 214° |
| 2026-05-05 20:13 | 44.34298 | 15.54200 | 34058 ft | 418 kts | 214° |
| 2026-05-05 20:13 | 44.29133 | 15.50482 | 34043 ft | 417 kts | 214° |
| 2026-05-05 20:14 | 44.23979 | 15.46777 | 34052 ft | 417 kts | 214° |
| 2026-05-05 20:14 | 44.18825 | 15.43078 | 34055 ft | 417 kts | 214° |
| 2026-05-05 20:15 | 44.13670 | 15.39388 | 34038 ft | 416 kts | 214° |
| 2026-05-05 20:15 | 44.08525 | 15.35708 | 34057 ft | 415 kts | 215° |
| 2026-05-05 20:16 | 44.03423 | 15.31965 | 34055 ft | 413 kts | 215° |
| 2026-05-05 20:16 | 43.98341 | 15.28238 | 34053 ft | 413 kts | 215° |
| 2026-05-05 20:17 | 43.93256 | 15.24524 | 34044 ft | 413 kts | 214° |
| 2026-05-05 20:17 | 43.88170 | 15.20817 | 34041 ft | 413 kts | 214° |
| 2026-05-05 20:18 | 43.83083 | 15.17117 | 34037 ft | 413 kts | 214° |
| 2026-05-05 20:18 | 43.77994 | 15.13427 | 34032 ft | 413 kts | 214° |
| 2026-05-05 20:19 | 43.72906 | 15.09743 | 34032 ft | 413 kts | 214° |
| 2026-05-05 20:19 | 43.67813 | 15.06060 | 34033 ft | 413 kts | 214° |
| 2026-05-05 20:20 | 43.62722 | 15.02388 | 34030 ft | 413 kts | 214° |
| 2026-05-05 20:20 | 43.57628 | 14.98722 | 34028 ft | 413 kts | 214° |
| 2026-05-05 20:21 | 43.52413 | 14.95346 | 34027 ft | 417 kts | 209° |
| 2026-05-05 20:21 | 43.46978 | 14.92383 | 34033 ft | 417 kts | 208° |
| 2026-05-05 20:22 | 43.41647 | 14.89484 | 34019 ft | 412 kts | 208° |
| 2026-05-05 20:22 | 43.36313 | 14.86579 | 34026 ft | 413 kts | 208° |
| 2026-05-05 20:23 | 43.30974 | 14.83669 | 34025 ft | 413 kts | 208° |
| 2026-05-05 20:23 | 43.25633 | 14.80769 | 34010 ft | 413 kts | 208° |
| 2026-05-05 20:24 | 43.20257 | 14.77855 | 34024 ft | 413 kts | 208° |
| 2026-05-05 20:24 | 43.14916 | 14.74964 | 34023 ft | 413 kts | 208° |
| 2026-05-05 20:25 | 43.09567 | 14.72075 | 34022 ft | 413 kts | 208° |
| 2026-05-05 20:25 | 43.04224 | 14.69200 | 34019 ft | 412 kts | 208° |
| 2026-05-05 20:26 | 42.98892 | 14.66334 | 34019 ft | 412 kts | 208° |
| 2026-05-05 20:26 | 42.93560 | 14.63471 | 34017 ft | 412 kts | 208° |
| 2026-05-05 20:27 | 42.88228 | 14.60613 | 34004 ft | 412 kts | 208° |
| 2026-05-05 20:27 | 42.82884 | 14.57757 | 34016 ft | 412 kts | 208° |
| 2026-05-05 20:28 | 42.77546 | 14.54911 | 34017 ft | 412 kts | 208° |
| 2026-05-05 20:28 | 42.72208 | 14.52076 | 34012 ft | 412 kts | 208° |
| 2026-05-05 20:29 | 42.66867 | 14.49241 | 34017 ft | 412 kts | 208° |
| 2026-05-05 20:29 | 42.61523 | 14.46414 | 34028 ft | 412 kts | 208° |
| 2026-05-05 20:30 | 42.56194 | 14.43577 | 34035 ft | 412 kts | 208° |
| 2026-05-05 20:30 | 42.50856 | 14.40748 | 34027 ft | 412 kts | 208° |
| 2026-05-05 20:31 | 42.45505 | 14.37928 | 34045 ft | 413 kts | 208° |
| 2026-05-05 20:31 | 42.40149 | 14.35095 | 34051 ft | 413 kts | 208° |
| 2026-05-05 20:32 | 42.34797 | 14.32281 | 33907 ft | 412 kts | 208° |
| 2026-05-05 20:32 | 42.32119 | 14.30875 | 32989 ft | 415 kts | 208° |
| 2026-05-05 20:32 | 42.29431 | 14.29465 | 32271 ft | 414 kts | 208° |
| 2026-05-05 20:32 | 42.26756 | 14.28066 | 31644 ft | 410 kts | 207° |
| 2026-05-05 20:33 | 42.24104 | 14.26679 | 31032 ft | 407 kts | 207° |
| 2026-05-05 20:33 | 42.21476 | 14.25306 | 30438 ft | 404 kts | 207° |
| 2026-05-05 20:33 | 42.18870 | 14.23944 | 29815 ft | 400 kts | 207° |
| 2026-05-05 20:33 | 42.16286 | 14.22593 | 29136 ft | 397 kts | 207° |
| 2026-05-05 20:34 | 42.13685 | 14.21235 | 28512 ft | 393 kts | 206° |
| 2026-05-05 20:34 | 42.11196 | 14.19939 | 28011 ft | 386 kts | 206° |
| 2026-05-05 20:34 | 42.08698 | 14.18638 | 27342 ft | 384 kts | 206° |
| 2026-05-05 20:34 | 42.06212 | 14.17343 | 26702 ft | 381 kts | 206° |
| 2026-05-05 20:35 | 42.03749 | 14.16059 | 26062 ft | 378 kts | 205° |
| 2026-05-05 20:35 | 42.01304 | 14.14787 | 25468 ft | 376 kts | 205° |
| 2026-05-05 20:35 | 41.98867 | 14.13520 | 24895 ft | 375 kts | 204° |
| 2026-05-05 20:35 | 41.96440 | 14.12259 | 24349 ft | 372 kts | 204° |
| 2026-05-05 20:36 | 41.94036 | 14.11014 | 23823 ft | 369 kts | 203° |
| 2026-05-05 20:36 | 41.91653 | 14.09780 | 23257 ft | 366 kts | 203° |
| 2026-05-05 20:36 | 41.89291 | 14.08560 | 22709 ft | 362 kts | 202° |
| 2026-05-05 20:36 | 41.86868 | 14.07685 | 22197 ft | 361 kts | 192° |
| 2026-05-05 20:37 | 41.84395 | 14.07201 | 21708 ft | 357 kts | 190° |
| 2026-05-05 20:37 | 41.82768 | 14.06913 | 21398 ft | 354 kts | 190° |
| 2026-05-05 20:37 | 41.79528 | 14.06333 | 20774 ft | 349 kts | 191° |
| 2026-05-05 20:37 | 41.77134 | 14.05895 | 20328 ft | 345 kts | 191° |
| 2026-05-05 20:38 | 41.74775 | 14.05456 | 19894 ft | 340 kts | 191° |
| 2026-05-05 20:38 | 41.72442 | 14.05021 | 19480 ft | 335 kts | 191° |
| 2026-05-05 20:38 | 41.70150 | 14.04592 | 19067 ft | 331 kts | 191° |
| 2026-05-05 20:38 | 41.67878 | 14.04167 | 18675 ft | 327 kts | 191° |
| 2026-05-05 20:39 | 41.65642 | 14.03767 | 18278 ft | 323 kts | 188° |
| 2026-05-05 20:39 | 41.63409 | 14.03856 | 17843 ft | 323 kts | 172° |
| 2026-05-05 20:39 | 41.61958 | 14.04445 | 17577 ft | 324 kts | 159° |
| 2026-05-05 20:39 | 41.60069 | 14.06092 | 17202 ft | 327 kts | 140° |
| 2026-05-05 20:40 | 41.58500 | 14.08293 | 16856 ft | 326 kts | 134° |
| 2026-05-05 20:40 | 41.57004 | 14.10562 | 16512 ft | 324 kts | 134° |
| 2026-05-05 20:40 | 41.55512 | 14.12803 | 16179 ft | 323 kts | 134° |
| 2026-05-05 20:40 | 41.54012 | 14.15023 | 15844 ft | 322 kts | 134° |
| 2026-05-05 20:41 | 41.52511 | 14.17237 | 15496 ft | 322 kts | 134° |
| 2026-05-05 20:41 | 41.51004 | 14.19442 | 15164 ft | 322 kts | 135° |
| 2026-05-05 20:41 | 41.49490 | 14.21646 | 14799 ft | 323 kts | 135° |
| 2026-05-05 20:41 | 41.47968 | 14.23857 | 14447 ft | 324 kts | 135° |
| 2026-05-05 20:42 | 41.46434 | 14.26077 | 14090 ft | 326 kts | 135° |
| 2026-05-05 20:42 | 41.44896 | 14.28303 | 13717 ft | 328 kts | 135° |
| 2026-05-05 20:42 | 41.43349 | 14.30537 | 13317 ft | 328 kts | 135° |
| 2026-05-05 20:42 | 41.41746 | 14.32692 | 12892 ft | 327 kts | 140° |
| 2026-05-05 20:43 | 41.40023 | 14.34733 | 12046 ft | 336 kts | 141° |
| 2026-05-05 20:43 | 41.38252 | 14.36785 | 11454 ft | 336 kts | 141° |
| 2026-05-05 20:43 | 41.36511 | 14.38807 | 11150 ft | 327 kts | 141° |
| 2026-05-05 20:43 | 41.34839 | 14.40757 | 11049 ft | 312 kts | 141° |
| 2026-05-05 20:44 | 41.33189 | 14.42523 | 11031 ft | 299 kts | 148° |
| 2026-05-05 20:44 | 41.31441 | 14.43991 | 11051 ft | 298 kts | 150° |
| 2026-05-05 20:44 | 41.29677 | 14.45437 | 11064 ft | 298 kts | 150° |
| 2026-05-05 20:44 | 41.27910 | 14.46887 | 11071 ft | 298 kts | 150° |
| 2026-05-05 20:45 | 41.24090 | 14.48873 | 10729 ft | 297 kts | 160° |
| 2026-05-05 20:45 | 41.22373 | 14.50437 | 10030 ft | 308 kts | 131° |
| 2026-05-05 20:45 | 41.21415 | 14.52954 | 9555 ft | 307 kts | 102° |
| 2026-05-05 20:46 | 41.21368 | 14.55737 | 9215 ft | 300 kts | 85° |
| 2026-05-05 20:46 | 41.21543 | 14.58493 | 8651 ft | 299 kts | 86° |
| 2026-05-05 20:46 | 41.21647 | 14.61235 | 8174 ft | 295 kts | 88° |
| 2026-05-05 20:46 | 41.21688 | 14.63947 | 7701 ft | 293 kts | 90° |
| 2026-05-05 20:47 | 41.21689 | 14.66619 | 7351 ft | 284 kts | 90° |
| 2026-05-05 20:47 | 41.21669 | 14.69193 | 7090 ft | 274 kts | 91° |
| 2026-05-05 20:47 | 41.21633 | 14.71677 | 6953 ft | 262 kts | 92° |
| 2026-05-05 20:47 | 41.21312 | 14.74001 | 6920 ft | 256 kts | 117° |
| 2026-05-05 20:48 | 41.20185 | 14.75780 | 6943 ft | 253 kts | 147° |
| 2026-05-05 20:48 | 41.18693 | 14.77000 | 6957 ft | 252 kts | 152° |
| 2026-05-05 20:48 | 41.17173 | 14.78159 | 6962 ft | 252 kts | 152° |
| 2026-05-05 20:48 | 41.15660 | 14.79330 | 6962 ft | 251 kts | 153° |
| 2026-05-05 20:49 | 41.14026 | 14.80069 | 6952 ft | 237 kts | 181° |
| 2026-05-05 20:49 | 41.12520 | 14.79630 | 6944 ft | 217 kts | 213° |
| 2026-05-05 20:49 | 41.11439 | 14.78283 | 6953 ft | 214 kts | 238° |
| 2026-05-05 20:49 | 41.10693 | 14.76571 | 6962 ft | 214 kts | 242° |
| 2026-05-05 20:50 | 41.09970 | 14.74844 | 6969 ft | 214 kts | 241° |
| 2026-05-05 20:50 | 41.09218 | 14.73142 | 6968 ft | 214 kts | 240° |
| 2026-05-05 20:50 | 41.08446 | 14.71449 | 6971 ft | 214 kts | 239° |
| 2026-05-05 20:50 | 41.07681 | 14.69758 | 6972 ft | 214 kts | 240° |
| 2026-05-05 20:51 | 41.06906 | 14.68076 | 6971 ft | 214 kts | 239° |
| 2026-05-05 20:51 | 41.06120 | 14.66395 | 6908 ft | 214 kts | 239° |
| 2026-05-05 20:51 | 41.05337 | 14.64721 | 6728 ft | 213 kts | 239° |
| 2026-05-05 20:51 | 41.04559 | 14.63060 | 6481 ft | 211 kts | 239° |
| 2026-05-05 20:52 | 41.03786 | 14.61409 | 6198 ft | 210 kts | 239° |
| 2026-05-05 20:52 | 41.03018 | 14.59769 | 5911 ft | 209 kts | 239° |
| 2026-05-05 20:52 | 41.02253 | 14.58137 | 5599 ft | 208 kts | 239° |
| 2026-05-05 20:52 | 41.01487 | 14.56501 | 5294 ft | 209 kts | 239° |
| 2026-05-05 20:53 | 41.00726 | 14.54879 | 5009 ft | 206 kts | 239° |
| 2026-05-05 20:53 | 40.99974 | 14.53275 | 4704 ft | 205 kts | 238° |
| 2026-05-05 20:53 | 40.99219 | 14.51665 | 4389 ft | 206 kts | 238° |
| 2026-05-05 20:53 | 40.98466 | 14.50061 | 4090 ft | 204 kts | 238° |
| 2026-05-05 20:54 | 40.97719 | 14.48468 | 3784 ft | 204 kts | 238° |
| 2026-05-05 20:54 | 40.96970 | 14.46873 | 3487 ft | 204 kts | 238° |
| 2026-05-05 20:54 | 40.96224 | 14.45283 | 3185 ft | 204 kts | 237° |
| 2026-05-05 20:54 | 40.95472 | 14.43682 | 2883 ft | 204 kts | 237° |
| 2026-05-05 20:55 | 40.94725 | 14.42091 | 2573 ft | 203 kts | 237° |
| 2026-05-05 20:55 | 40.94000 | 14.40547 | 2348 ft | 192 kts | 237° |
| 2026-05-05 20:55 | 40.93313 | 14.39084 | 2052 ft | 181 kts | 238° |
| 2026-05-05 20:55 | 40.92666 | 14.37706 | 1785 ft | 172 kts | 238° |
| 2026-05-05 20:56 | 40.92052 | 14.36400 | 1514 ft | 158 kts | 238° |
| 2026-05-05 20:56 | 40.91506 | 14.35243 | 1169 ft | 143 kts | 238° |
| 2026-05-05 20:56 | 40.90974 | 14.34144 | 914 ft | 141 kts | 237° |
| 2026-05-05 20:56 | 40.90444 | 14.33043 | 703 ft | 142 kts | 239° |
| 2026-05-05 20:57 | 40.89941 | 14.31921 | 540 ft | 141 kts | 239° |
| 2026-05-05 20:57 | 40.89421 | 14.30826 | 363 ft | 140 kts | 239° |
| 2026-05-05 20:57 | 40.88903 | 14.29723 | 271 ft | 136 kts | 238° |
| 2026-05-05 20:57 | 40.88458 | 14.28770 | 281 ft | 101 kts | 238° |
| 2026-05-05 20:58 | 40.88197 | 14.28216 | 293 ft | 39 kts | 239° |
| 2026-05-05 20:58 | 40.88134 | 14.28087 | 297 ft | 5 kts | 237° |
| 2026-05-05 20:58 | 40.88100 | 14.28043 | 297 ft | 9 kts | 198° |
| 2026-05-05 20:58 | 40.88049 | 14.28064 | 299 ft | 6 kts | 152° |
| 2026-05-05 20:59 | 40.88020 | 14.28112 | 297 ft | 8 kts | 92° |
| 2026-05-05 20:59 | 40.88045 | 14.28184 | 297 ft | 9 kts | 59° |
| 2026-05-05 20:59 | 40.88069 | 14.28267 | 296 ft | 11 kts | 91° |
| 2026-05-05 20:59 | 40.88061 | 14.28371 | 294 ft | 12 kts | 97° |
| 2026-05-05 21:00 | 40.88050 | 14.28485 | 291 ft | 13 kts | 97° |
| 2026-05-05 21:00 | 40.87977 | 14.28501 | 293 ft | 13 kts | 217° |
| 2026-05-05 21:00 | 40.87939 | 14.28401 | 295 ft | 12 kts | 272° |
| 2026-05-05 21:00 | 40.87943 | 14.28302 | 297 ft | 9 kts | 274° |
| 2026-05-05 21:01 | 40.87927 | 14.28230 | 297 ft | 7 kts | 186° |
| 2026-05-05 21:01 | 40.87886 | 14.28227 | 298 ft | 0 kts | 186° |